Time;durP1;ratioP1;P1;durP2;ratioP2;P2;SDS_P1;SDS_P2;PMS_P1;PMS_P2;Temp;Humidity;BMP_temperature;BMP_pressure;BME280_temperature;BME280_humidity;BME280_pressure;Samples;Min_cycle;Max_cycle;Signal;HPM_P1;HPM_P2
2023/06/10 00:00:14;;;;;;;0.90;0.90;;;;;;;22.52;65.49;99615.53;5071013;28;20245;-72
2023/06/10 00:02:42;;;;;;;0.70;0.70;;;;;;;22.34;66.08;99595.13;5071098;28;20761;-73
2023/06/10 00:05:10;;;;;;;0.80;0.80;;;;;;;22.54;66.52;99618.97;5070899;28;20206;-73
2023/06/10 00:07:37;;;;;;;0.70;0.70;;;;;;;22.44;65.00;99622.91;5070691;28;20294;-73
2023/06/10 00:10:05;;;;;;;0.68;0.68;;;;;;;22.48;61.41;99629.78;5071053;28;20238;-73
2023/06/10 00:12:36;;;;;;;0.70;0.70;;;;;;;22.42;60.67;99630.91;5070924;28;20195;-73
2023/06/10 00:15:03;;;;;;;0.70;0.70;;;;;;;22.48;59.77;99622.72;5071074;28;20226;-73
2023/06/10 00:17:30;;;;;;;0.70;0.70;;;;;;;22.52;60.24;99621.66;5074464;28;20222;-73
2023/06/10 00:19:57;;;;;;;0.70;0.70;;;;;;;22.51;60.17;99619.09;5074431;28;20217;-72
2023/06/10 00:22:29;;;;;;;0.70;0.70;;;;;;;22.62;60.75;99627.44;5074271;28;20233;-72
2023/06/10 00:24:56;;;;;;;0.70;0.70;;;;;;;22.50;60.65;99627.94;5074181;28;20203;-72
2023/06/10 00:27:23;;;;;;;0.70;0.70;;;;;;;22.53;60.97;99630.47;5074166;28;20704;-73
2023/06/10 00:29:50;;;;;;;0.70;0.70;;;;;;;22.44;61.58;99628.22;5074417;28;20292;-73
2023/06/10 00:32:16;;;;;;;0.70;0.70;;;;;;;22.43;61.58;99627.34;5074110;28;20657;-73
2023/06/10 00:34:43;;;;;;;0.73;0.73;;;;;;;22.40;61.26;99623.97;5073815;28;20226;-74
2023/06/10 00:37:10;;;;;;;0.60;0.60;;;;;;;22.41;61.88;99626.53;5074105;28;20566;-73
2023/06/10 00:39:38;;;;;;;0.68;0.68;;;;;;;22.50;61.33;99622.66;5073921;28;20615;-73
2023/06/10 00:42:06;;;;;;;0.60;0.60;;;;;;;22.44;60.55;99626.41;5074134;28;20202;-73
2023/06/10 00:44:33;;;;;;;0.70;0.70;;;;;;;22.37;60.59;99621.41;5055580;28;20286;-74
2023/06/10 00:47:00;;;;;;;0.80;0.80;;;;;;;22.31;62.01;99621.69;5074087;28;20199;-72
2023/06/10 00:49:27;;;;;;;0.63;0.63;;;;;;;22.20;63.58;99609.75;5055346;28;20199;-72
2023/06/10 00:51:54;;;;;;;0.60;0.60;;;;;;;22.25;64.70;99622.78;5073927;28;20198;-73
2023/06/10 00:54:22;;;;;;;0.70;0.70;;;;;;;22.24;64.22;99631.63;5073827;28;20219;-72
2023/06/10 00:56:51;;;;;;;0.70;0.70;;;;;;;22.34;64.32;99634.75;5038439;28;20206;-71
2023/06/10 00:59:18;;;;;;;0.60;0.60;;;;;;;21.42;65.16;99507.25;5073826;28;20199;-72
2023/06/10 01:01:47;;;;;;;0.70;0.70;;;;;;;22.14;67.21;99628.50;5073558;28;20713;-72
2023/06/10 01:04:14;;;;;;;0.70;0.70;;;;;;;22.09;70.80;99632.22;5073504;28;20205;-72
2023/06/10 01:06:49;;;;;;;0.70;0.70;;;;;;;21.69;81.51;99585.34;5073642;28;20284;-72
2023/06/10 01:09:31;;;;;;;1.05;1.05;;;;;;;21.88;83.91;99651.50;5073742;28;20209;-72
2023/06/10 01:12:09;;;;;;;0.85;0.85;;;;;;;21.60;87.81;99643.75;5073372;28;20238;-72
2023/06/10 01:14:38;;;;;;;0.70;0.70;;;;;;;21.05;92.83;99611.41;5073480;28;20222;-72
2023/06/10 01:17:05;;;;;;;0.70;0.70;;;;;;;21.01;95.15;99637.97;5073420;28;20289;-72
2023/06/10 01:19:33;;;;;;;0.70;0.70;;;;;;;20.76;96.81;99643.19;5073269;28;20731;-72
2023/06/10 01:22:01;;;;;;;0.70;0.70;;;;;;;20.69;96.89;99621.44;5073283;28;20203;-72
2023/06/10 01:24:32;;;;;;;0.70;0.70;;;;;;;20.75;98.50;99633.56;5073131;28;20203;-71
2023/06/10 01:27:02;;;;;;;0.60;0.60;;;;;;;20.86;100.00;99631.44;5072171;28;20253;-73
2023/06/10 01:29:34;;;;;;;0.70;0.70;;;;;;;20.97;95.79;99631.06;5073278;28;20231;-72
2023/06/10 01:32:05;;;;;;;0.60;0.60;;;;;;;20.83;91.86;99633.31;5073104;28;20351;-72
2023/06/10 01:34:34;;;;;;;0.70;0.70;;;;;;;20.86;91.33;99617.38;5072940;28;20226;-71
2023/06/10 01:37:04;;;;;;;0.80;0.80;;;;;;;21.06;88.65;99626.31;5072850;28;20201;-71
2023/06/10 01:39:33;;;;;;;0.70;0.70;;;;;;;21.07;88.31;99625.41;5073106;28;20597;-71
2023/06/10 01:42:02;;;;;;;0.75;0.75;;;;;;;21.04;86.97;99614.97;5072980;28;20198;-72
2023/06/10 01:44:28;;;;;;;0.90;0.90;;;;;;;21.15;86.99;99625.19;5072812;28;20214;-73
2023/06/10 01:46:55;;;;;;;0.70;0.70;;;;;;;21.15;85.49;99615.47;5072647;28;20198;-73
2023/06/10 01:49:23;;;;;;;0.63;0.63;;;;;;;21.10;85.94;99598.97;5072741;28;20230;-72
2023/06/10 01:51:50;;;;;;;0.70;0.70;;;;;;;21.16;85.44;99604.03;5072593;28;20207;-72
2023/06/10 01:54:18;;;;;;;0.70;0.70;;;;;;;21.46;85.94;99631.06;5072741;28;20203;-71
2023/06/10 01:56:45;;;;;;;0.70;0.70;;;;;;;21.40;86.02;99631.31;5072469;28;20278;-72
2023/06/10 01:59:12;;;;;;;0.65;0.65;;;;;;;21.41;85.89;99626.88;5072421;28;20202;-72
2023/06/10 02:01:39;;;;;;;0.60;0.60;;;;;;;21.44;86.52;99634.69;5072465;28;20641;-71
2023/06/10 02:04:05;;;;;;;0.70;0.70;;;;;;;21.44;83.74;99626.78;5072330;28;20199;-72
2023/06/10 02:06:32;;;;;;;0.70;0.70;;;;;;;21.48;80.92;99629.22;5072587;28;20217;-72
2023/06/10 02:08:59;;;;;;;0.80;0.80;;;;;;;21.52;79.86;99630.84;5072390;28;20198;-71
2023/06/10 02:11:27;;;;;;;0.80;0.80;;;;;;;21.60;78.68;99622.66;5072378;28;20214;-72
2023/06/10 02:13:54;;;;;;;0.70;0.70;;;;;;;21.50;78.42;99621.28;5072210;28;20202;-72
2023/06/10 02:16:21;;;;;;;0.75;0.75;;;;;;;21.56;74.63;99628.94;5053802;28;20230;-72
2023/06/10 02:18:48;;;;;;;0.70;0.70;;;;;;;21.61;74.41;99627.03;5071994;28;20206;-73
2023/06/10 02:21:15;;;;;;;0.68;0.68;;;;;;;21.53;71.56;99623.78;5072292;28;20279;-71
2023/06/10 02:23:42;;;;;;;0.70;0.70;;;;;;;21.55;70.80;99619.31;5072150;28;20206;-72
2023/06/10 02:26:08;;;;;;;0.80;0.80;;;;;;;21.55;70.93;99600.84;5071949;28;20701;-71
2023/06/10 02:28:37;;;;;;;0.70;0.70;;;;;;;21.76;70.67;99621.13;5071865;28;20670;-71
2023/06/10 02:31:03;;;;;;;0.63;0.63;;;;;;;21.53;71.28;99589.50;5072106;28;20233;-72
2023/06/10 02:33:31;;;;;;;0.70;0.70;;;;;;;21.65;70.83;99618.06;5071830;28;20693;-71
2023/06/10 02:35:58;;;;;;;0.80;0.80;;;;;;;21.65;71.47;99616.25;5071901;28;20713;-71
2023/06/10 02:38:24;;;;;;;0.82;0.82;;;;;;;21.63;71.43;99606.69;5071552;28;20700;-73
2023/06/10 02:40:51;;;;;;;0.90;0.90;;;;;;;21.30;72.80;99539.41;5071879;28;20264;-72
2023/06/10 02:43:19;;;;;;;0.68;0.68;;;;;;;21.76;75.25;99622.00;5071867;28;20722;-71
2023/06/10 02:45:47;;;;;;;0.70;0.70;;;;;;;21.95;77.08;99624.84;5053355;28;20230;-71
2023/06/10 02:48:14;;;;;;;0.63;0.63;;;;;;;21.77;77.59;99623.75;5053096;28;20229;-72
2023/06/10 02:50:41;;;;;;;0.77;0.77;;;;;;;21.54;77.17;99613.19;5036515;28;20199;-72
2023/06/10 02:53:08;;;;;;;0.60;0.60;;;;;;;21.66;80.47;99633.84;5036352;28;20226;-73
2023/06/10 02:55:35;;;;;;;0.80;0.80;;;;;;;21.65;83.21;99631.28;5071384;28;20226;-73
2023/06/10 02:58:02;;;;;;;0.70;0.70;;;;;;;21.55;87.15;99629.88;5071621;28;20628;-73
2023/06/10 03:00:29;;;;;;;0.70;0.70;;;;;;;21.31;89.25;99607.88;5071447;28;20281;-72
2023/06/10 03:02:58;;;;;;;0.70;0.70;;;;;;;21.50;91.71;99629.19;5071792;28;20197;-72
2023/06/10 03:05:24;;;;;;;0.70;0.70;;;;;;;21.27;93.08;99604.50;5053160;28;20264;-72
2023/06/10 03:07:51;;;;;;;0.70;0.70;;;;;;;21.25;93.43;99600.22;5071630;28;20191;-72
2023/06/10 03:10:18;;;;;;;0.70;0.70;;;;;;;21.42;93.65;99623.31;5071580;28;20206;-72
2023/06/10 03:12:45;;;;;;;0.73;0.73;;;;;;;21.47;93.74;99634.59;5071404;28;20199;-72
2023/06/10 03:15:12;;;;;;;0.82;0.82;;;;;;;21.56;94.66;99636.88;5071624;28;20223;-72
2023/06/10 03:17:39;;;;;;;0.70;0.70;;;;;;;21.23;95.16;99623.13;5071503;28;20199;-72
2023/06/10 03:20:10;;;;;;;0.77;0.77;;;;;;;21.49;94.47;99646.78;5071197;28;20195;-72
2023/06/10 03:22:37;;;;;;;0.70;0.70;;;;;;;21.42;95.29;99636.50;5071213;28;20285;-72
2023/06/10 03:25:05;;;;;;;0.65;0.65;;;;;;;21.72;92.08;99643.31;5071279;28;20203;-72
2023/06/10 03:27:32;;;;;;;0.70;0.70;;;;;;;21.93;86.96;99642.53;5071180;28;20214;-71
2023/06/10 03:29:59;;;;;;;0.70;0.70;;;;;;;22.09;84.52;99641.00;5071457;28;20325;-72
2023/06/10 03:32:26;;;;;;;0.77;0.77;;;;;;;22.16;81.86;99639.84;5071470;28;20241;-72
2023/06/10 03:34:56;;;;;;;0.70;0.70;;;;;;;22.08;80.85;99610.22;5071120;28;20243;-72
2023/06/10 03:37:24;;;;;;;0.70;0.70;;;;;;;22.52;77.30;99647.22;5071070;28;20203;-72
2023/06/10 03:39:51;;;;;;;0.73;0.73;;;;;;;22.50;76.42;99636.75;5070913;28;20195;-72
2023/06/10 03:42:18;;;;;;;0.70;0.70;;;;;;;22.51;75.94;99640.25;5071072;28;20214;-72
2023/06/10 03:44:45;;;;;;;0.60;0.60;;;;;;;22.44;72.22;99633.50;5071037;28;20684;-71
2023/06/10 03:47:12;;;;;;;0.80;0.80;;;;;;;22.39;71.82;99641.59;5071166;28;20206;-71
2023/06/10 03:49:40;;;;;;;0.70;0.70;;;;;;;22.08;68.82;99607.59;5070928;28;20214;-71
2023/06/10 03:52:08;;;;;;;0.60;0.60;;;;;;;22.44;69.89;99636.13;5074613;28;20195;-72
2023/06/10 03:54:36;;;;;;;0.63;0.63;;;;;;;22.64;67.54;99621.19;5056503;28;20329;-72
2023/06/10 03:57:03;;;;;;;0.70;0.70;;;;;;;22.76;66.67;99633.03;5074916;28;20230;-71
2023/06/10 03:59:30;;;;;;;0.73;0.73;;;;;;;22.91;64.86;99635.03;5039774;28;20246;-72
2023/06/10 04:01:57;;;;;;;0.60;0.60;;;;;;;23.18;64.61;99639.16;5074905;28;20207;-72
2023/06/10 04:04:24;;;;;;;0.70;0.70;;;;;;;22.98;79.33;99639.13;5074689;28;20191;-72
2023/06/10 04:06:51;;;;;;;0.70;0.70;;;;;;;22.58;82.71;99623.22;5074567;28;20202;-72
2023/06/10 04:09:17;;;;;;;0.70;0.70;;;;;;;22.58;84.41;99653.13;5074510;28;20202;-72
2023/06/10 04:11:46;;;;;;;0.75;0.75;;;;;;;22.42;84.87;99659.09;5074433;28;20554;-72
2023/06/10 04:14:13;;;;;;;0.60;0.60;;;;;;;21.69;89.79;99659.25;5074627;28;20715;-71
2023/06/10 04:16:40;;;;;;;0.70;0.70;;;;;;;21.96;90.39;99647.69;5074492;28;20222;-71
2023/06/10 04:19:07;;;;;;;1.45;1.45;;;;;;;22.10;88.68;99655.94;5056056;28;20203;-73
2023/06/10 04:21:34;;;;;;;0.80;0.80;;;;;;;22.22;88.80;99655.44;5074261;28;20248;-73
2023/06/10 04:24:01;;;;;;;0.60;0.60;;;;;;;22.51;89.85;99664.88;5074575;28;20190;-73
2023/06/10 04:26:28;;;;;;;0.77;0.77;;;;;;;22.79;84.88;99666.44;5074428;28;20294;-73
2023/06/10 04:28:56;;;;;;;0.70;0.70;;;;;;;22.89;85.26;99663.34;5074283;28;20214;-74
2023/06/10 04:31:23;;;;;;;0.60;0.60;;;;;;;22.86;82.73;99650.25;5055596;28;20232;-72
2023/06/10 04:33:50;;;;;;;0.80;0.80;;;;;;;23.08;83.01;99663.44;5039339;28;20256;-71
2023/06/10 04:36:16;;;;;;;0.70;0.70;;;;;;;23.27;83.12;99663.47;5073951;28;20233;-73
2023/06/10 04:38:43;;;;;;;0.80;0.80;;;;;;;23.43;81.87;99664.56;5074149;28;20202;-73
2023/06/10 04:41:10;;;;;;;1.05;1.05;;;;;;;23.60;78.48;99665.53;5073988;28;20703;-72
2023/06/10 04:43:37;;;;;;;0.70;0.70;;;;;;;23.54;78.19;99668.44;5074111;28;20195;-72
2023/06/10 04:46:05;;;;;;;0.80;0.80;;;;;;;23.53;81.05;99672.03;5074131;28;20199;-72
2023/06/10 04:48:35;;;;;;;0.75;0.75;;;;;;;23.31;86.40;99676.50;5073891;28;20198;-74
2023/06/10 04:51:01;;;;;;;2.83;2.55;;;;;;;23.80;92.11;99669.94;5038775;28;20201;-73
2023/06/10 04:53:28;;;;;;;0.80;0.80;;;;;;;23.75;85.01;99671.94;5073682;28;20619;-74
2023/06/10 04:55:55;;;;;;;1.23;1.23;;;;;;;23.52;83.20;99674.75;5073705;28;20715;-74
2023/06/10 04:58:22;;;;;;;0.70;0.70;;;;;;;23.66;88.50;99674.97;5071034;28;20210;-77
2023/06/10 05:00:48;;;;;;;0.70;0.70;;;;;;;23.93;84.69;99668.47;5050684;28;20647;-76
2023/06/10 05:03:17;;;;;;;0.68;0.68;;;;;;;23.52;80.87;99609.44;5063449;28;20211;-75
2023/06/10 05:05:43;;;;;;;0.80;0.80;;;;;;;23.59;83.23;99660.31;5069438;28;20206;-76
2023/06/10 05:08:10;;;;;;;0.70;0.70;;;;;;;23.97;82.82;99675.31;5073201;28;20705;-74
2023/06/10 05:10:37;;;;;;;0.68;0.68;;;;;;;23.98;77.92;99657.63;5073373;28;20215;-73
2023/06/10 05:13:04;;;;;;;0.93;0.93;;;;;;;23.53;79.47;99671.19;5073402;28;20203;-73
2023/06/10 05:15:31;;;;;;;0.65;0.65;;;;;;;23.75;77.87;99684.31;5067603;28;20655;-73
2023/06/10 05:17:58;;;;;;;0.80;0.80;;;;;;;23.56;77.02;99678.97;5064482;28;20332;-73
2023/06/10 05:20:28;;;;;;;0.68;0.68;;;;;;;23.59;78.12;99682.34;5073152;28;20231;-73
2023/06/10 05:22:55;;;;;;;0.90;0.90;;;;;;;23.33;75.13;99690.53;5072999;28;20597;-73
2023/06/10 05:25:22;;;;;;;0.85;0.85;;;;;;;22.69;78.38;99613.94;5072825;28;20198;-73
2023/06/10 05:27:49;;;;;;;0.70;0.70;;;;;;;23.20;81.11;99690.22;5073059;28;20210;-73
2023/06/10 05:30:18;;;;;;;0.73;0.73;;;;;;;23.31;81.60;99681.81;5072853;28;20235;-73
2023/06/10 05:32:45;;;;;;;0.60;0.60;;;;;;;23.41;80.57;99692.84;5066217;28;20736;-73
2023/06/10 05:35:12;;;;;;;0.70;0.70;;;;;;;23.62;80.69;99690.16;5065628;28;20210;-73
2023/06/10 05:37:40;;;;;;;0.70;0.70;;;;;;;23.77;79.70;99690.38;5072738;28;20253;-72
2023/06/10 05:40:08;;;;;;;0.80;0.80;;;;;;;23.63;78.86;99698.94;5072954;28;20199;-72
2023/06/10 05:42:35;;;;;;;0.70;0.70;;;;;;;23.43;78.43;99689.25;5072538;28;20202;-72
2023/06/10 05:45:02;;;;;;;0.80;0.80;;;;;;;23.91;78.00;99699.44;5072547;28;20203;-72
2023/06/10 05:47:29;;;;;;;0.60;0.60;;;;;;;24.15;75.62;99703.63;5058443;28;20203;-71
2023/06/10 05:49:56;;;;;;;0.68;0.68;;;;;;;23.93;77.60;99679.06;5072477;28;20199;-73
2023/06/10 05:52:22;;;;;;;0.60;0.60;;;;;;;23.91;78.41;99703.88;5072440;28;20598;-76
2023/06/10 05:54:51;;;;;;;0.80;0.80;;;;;;;24.04;76.75;99705.03;5072555;28;20195;-72
2023/06/10 05:57:18;;;;;;;0.60;0.60;;;;;;;23.97;74.23;99701.78;5072454;28;20728;-74
2023/06/10 05:59:44;;;;;;;0.80;0.80;;;;;;;24.07;75.14;99704.91;5072441;28;20206;-74
2023/06/10 06:02:11;;;;;;;0.77;0.77;;;;;;;24.11;75.84;99696.72;5072712;28;20206;-76
2023/06/10 06:04:38;;;;;;;0.90;0.90;;;;;;;24.34;73.68;99703.63;5072749;28;20226;-73
2023/06/10 06:07:06;;;;;;;0.70;0.70;;;;;;;24.51;74.49;99693.09;5072344;28;20207;-73
2023/06/10 06:09:32;;;;;;;0.73;0.73;;;;;;;24.40;72.01;99691.91;5053912;28;20203;-73
2023/06/10 06:12:00;;;;;;;0.63;0.63;;;;;;;24.31;71.98;99679.94;5072269;28;20222;-74
2023/06/10 06:14:27;;;;;;;0.70;0.70;;;;;;;24.45;70.63;99693.38;5071716;28;20666;-73
2023/06/10 06:16:54;;;;;;;0.70;0.70;;;;;;;24.75;69.36;99695.50;5072317;28;20728;-74
2023/06/10 06:19:21;;;;;;;0.70;0.70;;;;;;;24.83;70.36;99683.59;5072192;28;20720;-77
2023/06/10 06:21:47;;;;;;;0.68;0.68;;;;;;;25.24;67.74;99699.22;5070192;28;20681;-73
2023/06/10 06:24:16;;;;;;;0.60;0.60;;;;;;;25.03;69.31;99672.00;5072012;28;20693;-74
2023/06/10 06:26:43;;;;;;;1.65;1.60;;;;;;;25.32;68.53;99674.03;5071813;28;20739;-75
2023/06/10 06:29:11;;;;;;;0.60;0.60;;;;;;;25.71;66.95;99694.13;5071827;28;20246;-74
2023/06/10 06:31:37;;;;;;;0.75;0.75;;;;;;;25.74;67.05;99683.34;5071985;28;20195;-74
2023/06/10 06:34:04;;;;;;;0.70;0.70;;;;;;;25.71;68.11;99676.41;5072074;28;20225;-73
2023/06/10 06:36:31;;;;;;;0.70;0.70;;;;;;;25.58;69.62;99678.84;5071814;28;20301;-73
2023/06/10 06:38:58;;;;;;;6.53;1.13;;;;;;;25.71;68.16;99691.47;5071815;28;20202;-73
2023/06/10 06:41:25;;;;;;;0.60;0.60;;;;;;;25.22;70.23;99624.97;5071662;28;20206;-74
2023/06/10 06:43:52;;;;;;;0.70;0.70;;;;;;;25.23;72.13;99655.03;5072065;28;20264;-73
2023/06/10 06:46:21;;;;;;;0.70;0.70;;;;;;;25.42;71.35;99682.34;5036606;28;20206;-73
2023/06/10 06:48:48;;;;;;;0.55;0.55;;;;;;;25.74;69.26;99686.00;5072100;28;20198;-74
2023/06/10 06:51:14;;;;;;;0.52;0.52;;;;;;;25.89;69.85;99686.06;5071522;28;20673;-74
2023/06/10 06:53:44;;;;;;;0.70;0.70;;;;;;;25.89;70.55;99686.06;5071566;28;20203;-74
2023/06/10 06:56:11;;;;;;;0.70;0.70;;;;;;;25.73;71.53;99641.78;5071625;28;20317;-74
2023/06/10 06:58:38;;;;;;;0.90;0.90;;;;;;;26.32;68.98;99681.94;5071650;28;20207;-74
2023/06/10 07:01:04;;;;;;;0.80;0.80;;;;;;;26.44;67.30;99678.56;5072087;28;20221;-73
2023/06/10 07:03:33;;;;;;;0.75;0.75;;;;;;;26.70;65.93;99679.75;5071694;28;20205;-75
2023/06/10 07:05:59;;;;;;;0.70;0.70;;;;;;;26.73;64.61;99676.91;5071880;28;20279;-74
2023/06/10 07:08:26;;;;;;;0.80;0.80;;;;;;;26.71;63.67;99665.50;5071269;28;20225;-74
2023/06/10 07:10:53;;;;;;;1.35;1.35;;;;;;;26.99;62.39;99670.97;5071762;28;20663;-74
2023/06/10 07:13:20;;;;;;;0.70;0.70;;;;;;;27.09;60.83;99668.63;5071501;28;20202;-73
2023/06/10 07:15:47;;;;;;;0.77;0.77;;;;;;;27.09;61.81;99668.63;5071287;28;20205;-74
2023/06/10 07:18:13;;;;;;;0.70;0.70;;;;;;;27.29;60.36;99662.13;5071236;28;20214;-73
2023/06/10 07:20:42;;;;;;;0.63;0.63;;;;;;;27.21;59.07;99672.34;5071155;28;20206;-73
2023/06/10 07:23:09;;;;;;;0.70;0.70;;;;;;;26.99;57.93;99664.78;5071444;28;20227;-74
2023/06/10 07:25:35;;;;;;;0.70;0.70;;;;;;;27.20;56.29;99652.00;5037346;28;20613;-73
2023/06/10 07:28:02;;;;;;;0.60;0.60;;;;;;;27.21;55.46;99651.06;5075538;28;20638;-73
2023/06/10 07:30:29;;;;;;;0.60;0.60;;;;;;;27.10;55.09;99657.88;5075688;28;20234;-73
2023/06/10 07:32:56;;;;;;;1.05;1.05;;;;;;;27.32;56.01;99669.91;5075343;28;20206;-72
2023/06/10 07:35:23;;;;;;;0.70;0.70;;;;;;;27.41;58.24;99666.69;5075148;28;20230;-72
2023/06/10 07:37:51;;;;;;;0.70;0.70;;;;;;;27.88;55.29;99654.00;5075595;28;20232;-73
2023/06/10 07:40:18;;;;;;;0.63;0.63;;;;;;;27.37;56.96;99660.69;5075106;28;20564;-74
2023/06/10 07:42:45;;;;;;;0.60;0.60;;;;;;;27.66;56.93;99661.59;5075359;28;20203;-74
2023/06/10 07:45:12;;;;;;;0.63;0.63;;;;;;;27.54;55.09;99665.00;5075012;28;20199;-75
2023/06/10 07:47:38;;;;;;;0.70;0.70;;;;;;;28.01;54.16;99670.06;5075144;28;20589;-73
2023/06/10 07:50:06;;;;;;;0.60;0.60;;;;;;;28.05;54.61;99675.09;5074888;28;20198;-73
2023/06/10 07:52:32;;;;;;;0.60;0.60;;;;;;;27.97;55.94;99672.06;5075192;28;20206;-75
2023/06/10 07:55:01;;;;;;;0.70;0.70;;;;;;;28.30;52.34;99657.56;5075224;28;20218;-74
2023/06/10 07:57:27;;;;;;;0.80;0.80;;;;;;;27.84;54.19;99679.13;5039437;28;20214;-73
2023/06/10 07:59:57;;;;;;;0.70;0.70;;;;;;;28.13;54.75;99671.13;5074982;28;20256;-73
2023/06/10 08:02:24;;;;;;;0.60;0.60;;;;;;;28.22;54.44;99675.91;5074676;28;20218;-73
2023/06/10 08:04:50;;;;;;;0.77;0.77;;;;;;;27.72;56.22;99677.19;5075132;28;20202;-73
2023/06/10 08:07:18;;;;;;;0.60;0.60;;;;;;;27.80;57.39;99672.25;5074640;28;20688;-74
2023/06/10 08:09:44;;;;;;;0.80;0.80;;;;;;;28.03;57.29;99681.50;5074649;28;20199;-73
2023/06/10 08:12:12;;;;;;;0.70;0.70;;;;;;;28.31;59.14;99685.97;5074482;28;20210;-73
2023/06/10 08:14:39;;;;;;;1.50;1.50;;;;;;;28.46;59.18;99674.31;5074505;28;20202;-73
2023/06/10 08:17:06;;;;;;;0.65;0.65;;;;;;;29.09;58.57;99689.72;5074260;28;20312;-73
2023/06/10 08:19:33;;;;;;;0.70;0.70;;;;;;;29.08;56.92;99693.34;5074698;28;20236;-73
2023/06/10 08:22:00;;;;;;;0.60;0.60;;;;;;;29.07;57.18;99692.50;5055868;28;20206;-73
2023/06/10 08:24:27;;;;;;;0.68;0.68;;;;;;;29.17;56.50;99696.25;5074420;28;20260;-74
2023/06/10 08:26:54;;;;;;;0.60;0.60;;;;;;;29.03;56.87;99688.31;5039103;28;20202;-73
2023/06/10 08:29:22;;;;;;;0.80;0.80;;;;;;;29.18;57.81;99678.44;5074126;28;20259;-73
2023/06/10 08:31:49;;;;;;;0.70;0.70;;;;;;;29.42;57.32;99692.81;5074192;28;20236;-74
2023/06/10 08:34:16;;;;;;;0.60;0.60;;;;;;;28.90;58.00;99688.28;5074150;28;20198;-74
2023/06/10 08:36:45;;;;;;;0.60;0.60;;;;;;;28.91;57.39;99687.31;5073521;28;20616;-74
2023/06/10 08:39:11;;;;;;;0.60;0.60;;;;;;;29.07;58.67;99692.50;5038845;28;20234;-74
2023/06/10 08:41:44;;;;;;;0.60;0.60;;;;;;;29.28;59.56;99690.22;5074013;28;20701;-75
2023/06/10 08:44:14;;;;;;;0.70;0.70;;;;;;;28.90;59.27;99684.75;5073817;28;20199;-74
2023/06/10 08:46:45;;;;;;;0.80;0.80;;;;;;;29.11;60.43;99682.47;5074250;28;20207;-74
2023/06/10 08:49:18;;;;;;;0.90;0.90;;;;;;;28.92;59.37;99685.50;5074109;28;20210;-74
2023/06/10 08:51:47;;;;;;;0.60;0.60;;;;;;;29.25;60.09;99690.41;5038663;28;20592;-73
2023/06/10 08:54:21;;;;;;;0.80;0.80;;;;;;;29.66;58.15;99684.91;5073808;28;20206;-74
2023/06/10 08:56:52;;;;;;;0.60;0.60;;;;;;;29.76;57.33;99684.16;5073611;28;20238;-75
2023/06/10 08:59:19;;;;;;;0.70;0.70;;;;;;;30.19;56.32;99683.78;5073928;28;20594;-74
2023/06/10 09:01:48;;;;;;;0.70;0.70;;;;;;;30.44;54.14;99684.63;5073939;28;20230;-74
2023/06/10 09:04:16;;;;;;;0.70;0.70;;;;;;;29.99;54.21;99685.25;5073573;28;20207;-74
2023/06/10 09:06:43;;;;;;;0.60;0.60;;;;;;;29.69;55.97;99682.88;5073550;28;20202;-74
2023/06/10 09:09:10;;;;;;;0.70;0.70;;;;;;;29.36;55.89;99658.50;5073312;28;20214;-74
2023/06/10 09:11:39;;;;;;;0.60;0.60;;;;;;;29.98;54.80;99687.06;5073774;28;20194;-75
2023/06/10 09:14:05;;;;;;;0.63;0.63;;;;;;;30.19;53.96;99675.78;5073614;28;20202;-73
2023/06/10 09:16:32;;;;;;;0.70;0.70;;;;;;;30.93;53.06;99683.66;5073441;28;20198;-74
2023/06/10 09:19:00;;;;;;;0.90;0.90;;;;;;;30.55;53.47;99675.81;5073420;28;20537;-74
2023/06/10 09:21:27;;;;;;;0.80;0.80;;;;;;;30.91;51.95;99682.91;5073256;28;20310;-74
2023/06/10 09:23:54;;;;;;;0.60;0.60;;;;;;;30.24;51.70;99654.91;5073364;28;20199;-75
2023/06/10 09:26:22;;;;;;;0.77;0.77;;;;;;;29.65;53.79;99673.34;5073406;28;20206;-75
2023/06/10 09:28:49;;;;;;;0.80;0.80;;;;;;;30.11;54.36;99662.94;5073442;28;20194;-75
2023/06/10 09:31:19;;;;;;;0.73;0.73;;;;;;;30.93;54.53;99668.44;5054612;28;20261;-74
2023/06/10 09:33:46;;;;;;;0.60;0.60;;;;;;;31.31;51.39;99675.44;5073255;28;20209;-75
2023/06/10 09:36:22;;;;;;;0.60;0.60;;;;;;;31.15;51.36;99669.53;5072824;28;20198;-73
2023/06/10 09:38:50;;;;;;;0.70;0.70;;;;;;;31.39;51.70;99667.66;5073059;28;20226;-74
2023/06/10 09:41:17;;;;;;;0.70;0.70;;;;;;;30.82;52.40;99663.03;5072765;28;20202;-74
2023/06/10 09:43:46;;;;;;;0.60;0.60;;;;;;;30.71;52.30;99654.97;5073115;28;20194;-74
2023/06/10 09:46:17;;;;;;;0.77;0.77;;;;;;;30.78;52.51;99653.56;5072744;28;20236;-74
2023/06/10 09:48:45;;;;;;;0.60;0.60;;;;;;;30.64;52.58;99659.09;5069509;28;20673;-74
2023/06/10 09:51:16;;;;;;;0.60;0.60;;;;;;;30.45;53.81;99658.72;5072734;28;20256;-74
2023/06/10 09:53:43;;;;;;;0.98;0.85;;;;;;;30.35;53.01;99663.00;5072211;28;20206;-74
2023/06/10 09:56:10;;;;;;;1.00;1.00;;;;;;;30.31;51.60;99662.38;5065353;28;20277;-73
2023/06/10 09:58:38;;;;;;;0.55;0.55;;;;;;;30.64;51.80;99653.72;5066017;28;20233;-74
2023/06/10 10:01:10;;;;;;;0.65;0.65;;;;;;;30.97;50.70;99653.03;5065001;28;20202;-73
2023/06/10 10:03:45;;;;;;;1.02;1.02;;;;;;;30.96;49.06;99644.09;5072367;28;20207;-74
2023/06/10 10:06:14;;;;;;;0.80;0.80;;;;;;;31.37;49.26;99650.81;5072327;28;20229;-72
2023/06/10 10:08:40;;;;;;;0.60;0.60;;;;;;;31.56;48.88;99653.81;5072137;28;20201;-74
2023/06/10 10:11:08;;;;;;;0.50;0.50;;;;;;;31.39;48.12;99640.84;5072290;28;20202;-74
2023/06/10 10:13:36;;;;;;;0.60;0.60;;;;;;;31.71;48.05;99633.00;5072167;28;20272;-73
2023/06/10 10:16:07;;;;;;;1.45;1.45;;;;;;;31.66;47.62;99605.69;5072409;28;20198;-73
2023/06/10 10:18:36;;;;;;;1.20;1.20;;;;;;;31.08;49.22;99645.03;5053718;28;20234;-73
2023/06/10 10:21:12;;;;;;;0.70;0.70;;;;;;;30.84;48.61;99636.16;5072331;28;20194;-73
2023/06/10 10:23:53;;;;;;;0.80;0.80;;;;;;;30.49;48.97;99634.31;5054361;28;20201;-73
2023/06/10 10:26:22;;;;;;;0.70;0.70;;;;;;;29.98;50.08;99627.38;5072039;28;20198;-72
2023/06/10 10:28:58;;;;;;;1.00;1.00;;;;;;;30.27;50.02;99622.56;5072242;28;20221;-72
2023/06/10 10:31:28;;;;;;;0.60;0.60;;;;;;;30.16;50.40;99622.50;5072038;28;20770;-74
2023/06/10 10:33:59;;;;;;;0.68;0.68;;;;;;;29.46;50.09;99623.03;5071926;28;20620;-73
2023/06/10 10:36:26;;;;;;;0.70;0.70;;;;;;;30.48;50.32;99626.38;5071819;28;20197;-73
2023/06/10 10:38:58;;;;;;;0.60;0.60;;;;;;;30.66;47.91;99624.16;5071627;28;20229;-72
2023/06/10 10:41:27;;;;;;;0.60;0.60;;;;;;;30.92;48.46;99615.88;5071796;28;20202;-73
2023/06/10 10:43:55;;;;;;;1.00;1.00;;;;;;;31.20;48.02;99606.59;5071738;28;20198;-73
2023/06/10 10:46:22;;;;;;;0.60;0.60;;;;;;;30.71;48.13;99612.16;5071896;28;20228;-71
2023/06/10 10:48:54;;;;;;;0.52;0.52;;;;;;;29.99;49.49;99586.31;5071688;28;20199;-72
2023/06/10 10:51:21;;;;;;;0.75;0.75;;;;;;;30.26;49.07;99599.47;5036259;28;20238;-73
2023/06/10 10:54:13;;;;;;;0.57;0.57;;;;;;;31.01;48.89;99608.13;5071998;28;20233;-72
2023/06/10 10:56:40;;;;;;;0.60;0.60;;;;;;;30.97;48.88;99605.69;5071645;28;20236;-72
2023/06/10 10:59:09;;;;;;;0.60;0.60;;;;;;;31.23;47.90;99602.81;5071226;28;20226;-71
2023/06/10 11:01:45;;;;;;;0.70;0.70;;;;;;;31.78;46.56;99602.91;5071113;28;20715;-73
2023/06/10 11:04:12;;;;;;;0.70;0.70;;;;;;;31.52;45.72;99598.75;5071563;28;20201;-73
2023/06/10 11:06:39;;;;;;;0.60;0.60;;;;;;;31.88;45.31;99598.50;5071578;28;20214;-73
2023/06/10 11:09:29;;;;;;;1.33;1.30;;;;;;;32.26;43.01;99594.53;5071483;28;20194;-72
2023/06/10 11:11:59;;;;;;;0.70;0.70;;;;;;;31.65;42.72;99594.09;5071470;28;20194;-72
2023/06/10 11:14:29;;;;;;;0.70;0.70;;;;;;;31.41;43.98;99596.03;5071610;28;20198;-73
2023/06/10 11:16:58;;;;;;;0.98;0.98;;;;;;;31.27;43.58;99586.38;5071597;28;20245;-73
2023/06/10 11:19:35;;;;;;;0.60;0.60;;;;;;;30.54;45.43;99567.03;5071105;28;20595;-73
2023/06/10 11:22:03;;;;;;;0.70;0.70;;;;;;;30.91;46.31;99587.38;5071348;28;20593;-72
2023/06/10 11:24:32;;;;;;;0.70;0.70;;;;;;;30.79;47.47;99566.03;5071310;28;20198;-72
2023/06/10 11:27:18;;;;;;;0.73;0.73;;;;;;;30.97;46.51;99575.34;5071398;28;20213;-72
2023/06/10 11:29:59;;;;;;;0.70;0.70;;;;;;;31.45;46.57;99562.66;5071508;28;20261;-72
2023/06/10 11:32:31;;;;;;;0.70;0.70;;;;;;;31.53;47.10;99562.94;5071342;28;20657;-72
2023/06/10 11:34:58;;;;;;;1.00;1.00;;;;;;;30.94;45.46;99549.66;5071296;28;20283;-73
2023/06/10 11:37:25;;;;;;;0.65;0.65;;;;;;;30.43;46.81;99540.22;5071220;28;20625;-73